sensor_id;sensor_type;location;lat;lon;timestamp;pressure;altitude;pressure_sealevel;temperature;humidity
77737;BME280;66903;59.926;30.404;2023-04-03T00:00:28;102361.97;;;25.59;29.62
77737;BME280;66903;59.926;30.404;2023-04-03T00:05:53;102351.69;;;25.63;29.81
77737;BME280;66903;59.926;30.404;2023-04-03T00:11:31;102353.41;;;25.64;29.69
77737;BME280;66903;59.926;30.404;2023-04-03T00:16:47;102349.91;;;25.57;29.45
77737;BME280;66903;59.926;30.404;2023-04-03T00:21:47;102348.50;;;25.59;29.56
77737;BME280;66903;59.926;30.404;2023-04-03T00:26:48;102345.38;;;25.61;29.70
77737;BME280;66903;59.926;30.404;2023-04-03T00:31:49;102339.06;;;25.59;29.53
77737;BME280;66903;59.926;30.404;2023-04-03T00:36:49;102343.63;;;25.60;29.91
77737;BME280;66903;59.926;30.404;2023-04-03T00:41:51;102339.94;;;25.59;29.37
77737;BME280;66903;59.926;30.404;2023-04-03T00:46:52;102345.38;;;25.61;29.14
77737;BME280;66903;59.926;30.404;2023-04-03T00:51:53;102349.09;;;25.61;29.28
77737;BME280;66903;59.926;30.404;2023-04-03T00:56:56;102348.22;;;25.61;29.36
77737;BME280;66903;59.926;30.404;2023-04-03T01:01:58;102346.50;;;25.60;29.23
77737;BME280;66903;59.926;30.404;2023-04-03T01:07:24;102337.38;;;25.63;29.26
77737;BME280;66903;59.926;30.404;2023-04-03T01:12:45;102335.34;;;25.63;29.11
77737;BME280;66903;59.926;30.404;2023-04-03T01:18:05;102338.19;;;25.58;29.23
77737;BME280;66903;59.926;30.404;2023-04-03T01:33:38;102330.75;;;25.57;29.08
77737;BME280;66903;59.926;30.404;2023-04-03T01:38:38;102329.00;;;25.56;29.39
77737;BME280;66903;59.926;30.404;2023-04-03T01:43:39;102333.63;;;25.57;29.29
77737;BME280;66903;59.926;30.404;2023-04-03T01:48:40;102336.47;;;25.57;28.74
77737;BME280;66903;59.926;30.404;2023-04-03T01:53:40;102330.75;;;25.57;29.34
77737;BME280;66903;59.926;30.404;2023-04-03T01:58:41;102339.34;;;25.57;29.31
77737;BME280;66903;59.926;30.404;2023-04-03T02:03:41;102338.47;;;25.57;29.24
77737;BME280;66903;59.926;30.404;2023-04-03T02:08:42;102333.63;;;25.57;29.05
77737;BME280;66903;59.926;30.404;2023-04-03T02:13:42;102323.03;;;25.58;28.91
77737;BME280;66903;59.926;30.404;2023-04-03T02:18:43;102334.50;;;25.58;29.03
77737;BME280;66903;59.926;30.404;2023-04-03T02:24:18;102327.31;;;25.60;28.69
77737;BME280;66903;59.926;30.404;2023-04-03T02:35:06;102328.19;;;25.56;28.96
77737;BME280;66903;59.926;30.404;2023-04-03T02:40:24;102329.00;;;25.56;28.73
77737;BME280;66903;59.926;30.404;2023-04-03T02:51:15;102326.44;;;25.55;28.79
77737;BME280;66903;59.926;30.404;2023-04-03T02:56:17;102321.59;;;25.55;28.93
77737;BME280;66903;59.926;30.404;2023-04-03T03:01:18;102319.59;;;25.56;28.72
77737;BME280;66903;59.926;30.404;2023-04-03T03:06:18;102325.31;;;25.56;28.56
77737;BME280;66903;59.926;30.404;2023-04-03T03:11:38;102329.91;;;25.62;28.73
77737;BME280;66903;59.926;30.404;2023-04-03T03:17:15;102327.03;;;25.62;28.93
77737;BME280;66903;59.926;30.404;2023-04-03T03:22:35;102334.50;;;25.58;29.00
77737;BME280;66903;59.926;30.404;2023-04-03T03:27:36;102327.91;;;25.57;28.89
77737;BME280;66903;59.926;30.404;2023-04-03T03:32:36;102322.44;;;25.56;28.66
77737;BME280;66903;59.926;30.404;2023-04-03T03:37:36;102325.91;;;25.58;28.70
77737;BME280;66903;59.926;30.404;2023-04-03T03:42:37;102336.19;;;25.59;28.68
77737;BME280;66903;59.926;30.404;2023-04-03T03:47:37;102337.06;;;25.59;28.75
77737;BME280;66903;59.926;30.404;2023-04-03T03:52:38;102339.94;;;25.59;28.58
77737;BME280;66903;59.926;30.404;2023-04-03T03:57:39;102335.03;;;25.60;28.73
77737;BME280;66903;59.926;30.404;2023-04-03T04:02:39;102340.75;;;25.60;28.58
77737;BME280;66903;59.926;30.404;2023-04-03T04:07:40;102332.78;;;25.62;28.46
77737;BME280;66903;59.926;30.404;2023-04-03T04:12:40;102334.50;;;25.58;28.58
77737;BME280;66903;59.926;30.404;2023-04-03T04:17:41;102331.22;;;25.39;28.52
77737;BME280;66903;59.926;30.404;2023-04-03T04:22:41;102335.88;;;25.13;28.38
77737;BME280;66903;59.926;30.404;2023-04-03T04:27:42;102329.38;;;24.91;28.59
77737;BME280;66903;59.926;30.404;2023-04-03T04:32:42;102331.25;;;24.76;28.49
77737;BME280;66903;59.926;30.404;2023-04-03T04:37:43;102337.50;;;24.73;28.48
77737;BME280;66903;59.926;30.404;2023-04-03T04:42:43;102320.03;;;24.69;28.79
77737;BME280;66903;59.926;30.404;2023-04-03T04:47:44;102335.25;;;24.75;29.05
77737;BME280;66903;59.926;30.404;2023-04-03T04:52:45;102329.25;;;24.76;28.80
77737;BME280;66903;59.926;30.404;2023-04-03T04:57:45;102329.22;;;24.71;28.72
77737;BME280;66903;59.926;30.404;2023-04-03T05:02:46;102325.09;;;24.62;28.58
77737;BME280;66903;59.926;30.404;2023-04-03T05:07:46;102330.75;;;24.57;28.58
77737;BME280;66903;59.926;30.404;2023-04-03T05:12:47;102323.34;;;24.61;28.52
77737;BME280;66903;59.926;30.404;2023-04-03T05:17:47;102322.22;;;24.62;28.34
77737;BME280;66903;59.926;30.404;2023-04-03T05:22:47;102325.38;;;24.61;28.43
77737;BME280;66903;59.926;30.404;2023-04-03T05:27:48;102333.06;;;24.60;28.18
77737;BME280;66903;59.926;30.404;2023-04-03T05:32:49;102330.22;;;24.60;28.13
77737;BME280;66903;59.926;30.404;2023-04-03T05:37:49;102326.81;;;24.63;28.15
77737;BME280;66903;59.926;30.404;2023-04-03T05:42:50;102332.66;;;24.73;27.78
77737;BME280;66903;59.926;30.404;2023-04-03T05:47:50;102325.59;;;24.86;27.81
77737;BME280;66903;59.926;30.404;2023-04-03T05:52:52;102343.47;;;24.98;27.48
77737;BME280;66903;59.926;30.404;2023-04-03T05:57:54;102324.63;;;25.07;27.42
77737;BME280;66903;59.926;30.404;2023-04-03T06:02:55;102329.28;;;25.13;27.39
77737;BME280;66903;59.926;30.404;2023-04-03T06:07:55;102321.03;;;25.22;27.69
77737;BME280;66903;59.926;30.404;2023-04-03T06:12:57;102341.41;;;25.30;27.46
77737;BME280;66903;59.926;30.404;2023-04-03T06:17:57;102343.81;;;25.38;27.74
77737;BME280;66903;59.926;30.404;2023-04-03T06:22:58;102337.25;;;25.48;27.70
77737;BME280;66903;59.926;30.404;2023-04-03T06:27:58;102338.47;;;25.57;27.65
77737;BME280;66903;59.926;30.404;2023-04-03T06:32:59;102335.94;;;25.65;27.41
77737;BME280;66903;59.926;30.404;2023-04-03T06:38:00;102339.69;;;25.71;27.62
77737;BME280;66903;59.926;30.404;2023-04-03T06:43:02;102339.72;;;25.76;27.23
77737;BME280;66903;59.926;30.404;2023-04-03T06:48:02;102340.03;;;25.79;27.19
77737;BME280;66903;59.926;30.404;2023-04-03T06:53:03;102337.16;;;25.79;27.08
77737;BME280;66903;59.926;30.404;2023-04-03T06:58:04;102340.03;;;25.79;27.05
77737;BME280;66903;59.926;30.404;2023-04-03T07:03:04;102346.31;;;25.76;27.05
77737;BME280;66903;59.926;30.404;2023-04-03T07:08:05;102342.00;;;25.74;27.16
77737;BME280;66903;59.926;30.404;2023-04-03T07:13:06;102351.72;;;25.73;26.97
77737;BME280;66903;59.926;30.404;2023-04-03T07:18:07;102344.28;;;25.72;26.94
77737;BME280;66903;59.926;30.404;2023-04-03T07:23:07;102352.06;;;25.81;27.03
77737;BME280;66903;59.926;30.404;2023-04-03T07:28:08;102353.25;;;25.90;26.61
77737;BME280;66903;59.926;30.404;2023-04-03T07:33:09;102355.28;;;26.00;26.63
77737;BME280;66903;59.926;30.404;2023-04-03T07:38:10;102352.16;;;26.01;26.51
77737;BME280;66903;59.926;30.404;2023-04-03T07:43:11;102348.19;;;26.07;26.76
77737;BME280;66903;59.926;30.404;2023-04-03T07:48:12;102363.41;;;26.18;26.57
77737;BME280;66903;59.926;30.404;2023-04-03T07:53:13;102364.59;;;26.22;26.33
77737;BME280;66903;59.926;30.404;2023-04-03T07:58:17;102366.59;;;26.27;26.25
77737;BME280;66903;59.926;30.404;2023-04-03T08:03:18;102375.50;;;26.35;26.38
77737;BME280;66903;59.926;30.404;2023-04-03T08:08:20;102371.53;;;26.46;26.66
77737;BME280;66903;59.926;30.404;2023-04-03T08:13:22;102377.56;;;26.45;26.92
77737;BME280;66903;59.926;30.404;2023-04-03T08:18:23;102367.50;;;26.37;26.28
77737;BME280;66903;59.926;30.404;2023-04-03T08:23:24;102375.78;;;26.29;26.47
77737;BME280;66903;59.926;30.404;2023-04-03T08:28:25;102380.34;;;26.24;26.36
77737;BME280;66903;59.926;30.404;2023-04-03T08:33:26;102382.91;;;26.21;26.41
77737;BME280;66903;59.926;30.404;2023-04-03T08:38:26;102380.31;;;26.19;26.43
77737;BME280;66903;59.926;30.404;2023-04-03T08:48:36;102378.91;;;26.22;26.21
77737;BME280;66903;59.926;30.404;2023-04-03T08:53:45;102385.63;;;25.96;26.26
77737;BME280;66903;59.926;30.404;2023-04-03T08:58:56;102386.03;;;25.63;26.76
77737;BME280;66903;59.926;30.404;2023-04-03T09:04:00;102389.91;;;25.47;27.01
77737;BME280;66903;59.926;30.404;2023-04-03T09:09:14;102376.63;;;25.36;26.65
77737;BME280;66903;59.926;30.404;2023-04-03T09:24:35;102394.06;;;24.97;27.20
77737;BME280;66903;59.926;30.404;2023-04-03T09:29:40;102386.59;;;24.96;26.95
77737;BME280;66903;59.926;30.404;2023-04-03T09:34:45;102385.72;;;24.91;27.37
77737;BME280;66903;59.926;30.404;2023-04-03T09:39:55;102384.84;;;24.90;27.43
77737;BME280;66903;59.926;30.404;2023-04-03T09:45:01;102388.81;;;24.89;27.42
77737;BME280;66903;59.926;30.404;2023-04-03T10:00:53;102400.56;;;24.93;27.38
77737;BME280;66903;59.926;30.404;2023-04-03T10:05:46;102398.34;;;25.00;27.45
77737;BME280;66903;59.926;30.404;2023-04-03T10:10:48;102398.91;;;25.29;27.49
77737;BME280;66903;59.926;30.404;2023-04-03T10:16:09;102397.94;;;25.50;27.04
77737;BME280;66903;59.926;30.404;2023-04-03T10:21:27;102401.25;;;25.68;26.80
77737;BME280;66903;59.926;30.404;2023-04-03T10:26:40;102398.72;;;25.77;26.80
77737;BME280;66903;59.926;30.404;2023-04-03T10:32:02;102383.28;;;25.83;26.68
77737;BME280;66903;59.926;30.404;2023-04-03T10:37:27;102389.03;;;25.93;26.83
77737;BME280;66903;59.926;30.404;2023-04-03T10:42:46;102395.38;;;26.00;26.68
77737;BME280;66903;59.926;30.404;2023-04-03T10:48:27;102388.56;;;26.06;26.60
77737;BME280;66903;59.926;30.404;2023-04-03T10:53:37;102385.72;;;26.06;26.23
77737;BME280;66903;59.926;30.404;2023-04-03T10:58:44;102395.47;;;26.10;26.49
77737;BME280;66903;59.926;30.404;2023-04-03T11:03:52;102390.34;;;26.12;26.49
77737;BME280;66903;59.926;30.404;2023-04-03T11:09:32;102401.81;;;26.17;26.47
77737;BME280;66903;59.926;30.404;2023-04-03T11:14:34;102400.06;;;26.11;26.28
77737;BME280;66903;59.926;30.404;2023-04-03T11:19:41;102395.19;;;26.06;26.10
77737;BME280;66903;59.926;30.404;2023-04-03T11:24:46;102404.34;;;26.08;26.59
77737;BME280;66903;59.926;30.404;2023-04-03T11:29:53;102385.16;;;26.09;26.38
77737;BME280;66903;59.926;30.404;2023-04-03T11:34:56;102399.75;;;26.07;26.30
77737;BME280;66903;59.926;30.404;2023-04-03T11:40:24;102396.72;;;25.82;26.50
77737;BME280;66903;59.926;30.404;2023-04-03T11:45:35;102406.78;;;25.43;26.21
77737;BME280;66903;59.926;30.404;2023-04-03T12:00:52;102413.16;;;24.92;27.07
77737;BME280;66903;59.926;30.404;2023-04-03T12:05:54;102402.78;;;24.86;27.30
77737;BME280;66903;59.926;30.404;2023-04-03T12:43:02;102396.56;;;24.67;27.09
77737;BME280;66903;59.926;30.404;2023-04-03T12:48:14;102381.31;;;24.57;27.23
77737;BME280;66903;59.926;30.404;2023-04-03T12:53:25;102394.13;;;24.54;26.91
77737;BME280;66903;59.926;30.404;2023-04-03T12:58:28;102395.44;;;24.42;26.72
77737;BME280;66903;59.926;30.404;2023-04-03T13:03:31;102398.16;;;24.32;26.82
77737;BME280;66903;59.926;30.404;2023-04-03T13:08:52;102397.78;;;24.23;26.61
77737;BME280;66903;59.926;30.404;2023-04-03T13:13:57;102408.22;;;24.13;26.68
77737;BME280;66903;59.926;30.404;2023-04-03T13:18:58;102403.47;;;24.01;26.52
77737;BME280;66903;59.926;30.404;2023-04-03T13:24:07;102403.16;;;23.98;26.50
77737;BME280;66903;59.926;30.404;2023-04-03T13:29:25;102404.25;;;23.97;26.99
77737;BME280;66903;59.926;30.404;2023-04-03T13:34:29;102394.44;;;23.88;26.56
77737;BME280;66903;59.926;30.404;2023-04-03T13:39:37;102390.63;;;23.82;26.75
77737;BME280;66903;59.926;30.404;2023-04-03T13:44:38;102393.75;;;23.81;26.81
77737;BME280;66903;59.926;30.404;2023-04-03T13:49:44;102393.41;;;23.77;26.94
77737;BME280;66903;59.926;30.404;2023-04-03T13:54:47;102400.34;;;23.81;27.16
77737;BME280;66903;59.926;30.404;2023-04-03T13:59:52;102392.78;;;23.92;27.17
77737;BME280;66903;59.926;30.404;2023-04-03T14:04:56;102394.69;;;24.03;27.09
77737;BME280;66903;59.926;30.404;2023-04-03T14:10:00;102387.88;;;24.09;27.39
77737;BME280;66903;59.926;30.404;2023-04-03T14:15:02;102390.34;;;24.22;27.26
77737;BME280;66903;59.926;30.404;2023-04-03T14:20:03;102397.56;;;24.30;27.68
77737;BME280;66903;59.926;30.404;2023-04-03T14:25:04;102375.59;;;24.30;27.55
77737;BME280;66903;59.926;30.404;2023-04-03T14:30:09;102377.06;;;24.33;27.26
77737;BME280;66903;59.926;30.404;2023-04-03T14:35:09;102379.03;;;24.32;27.53
77737;BME280;66903;59.926;30.404;2023-04-03T14:40:22;102377.84;;;24.28;27.51
77737;BME280;66903;59.926;30.404;2023-04-03T14:45:23;102381.84;;;24.27;27.66
77737;BME280;66903;59.926;30.404;2023-04-03T14:50:26;102386.13;;;24.30;27.31
77737;BME280;66903;59.926;30.404;2023-04-03T14:55:27;102374.47;;;24.31;27.22
77737;BME280;66903;59.926;30.404;2023-04-03T15:00:27;102368.22;;;24.34;27.15
77737;BME280;66903;59.926;30.404;2023-04-03T15:05:28;102376.94;;;24.49;27.19
77737;BME280;66903;59.926;30.404;2023-04-03T15:10:30;102377.22;;;24.69;27.12
77737;BME280;66903;59.926;30.404;2023-04-03T15:15:32;102379.09;;;24.85;26.91
77737;BME280;66903;59.926;30.404;2023-04-03T15:20:34;102378.28;;;24.95;26.97
77737;BME280;66903;59.926;30.404;2023-04-03T15:25:35;102379.25;;;25.05;26.58
77737;BME280;66903;59.926;30.404;2023-04-03T15:30:36;102387.63;;;25.12;26.30
77737;BME280;66903;59.926;30.404;2023-04-03T15:35:39;102378.81;;;25.18;26.33
77737;BME280;66903;59.926;30.404;2023-04-03T15:40:40;102380.81;;;25.23;26.54
77737;BME280;66903;59.926;30.404;2023-04-03T15:45:41;102387.72;;;25.27;26.11
77737;BME280;66903;59.926;30.404;2023-04-03T15:50:42;102370.59;;;25.32;26.34
77737;BME280;66903;59.926;30.404;2023-04-03T15:55:43;102374.16;;;25.44;26.91
77737;BME280;66903;59.926;30.404;2023-04-03T16:00:44;102376.81;;;25.56;27.01
77737;BME280;66903;59.926;30.404;2023-04-03T16:05:44;102372.81;;;25.57;27.12
77737;BME280;66903;59.926;30.404;2023-04-03T16:10:45;102372.72;;;25.42;27.36
77737;BME280;66903;59.926;30.404;2023-04-03T16:15:47;102363.59;;;25.13;27.50
77737;BME280;66903;59.926;30.404;2023-04-03T16:20:48;102378.56;;;24.93;28.86
77737;BME280;66903;59.926;30.404;2023-04-03T16:25:49;102373.25;;;24.75;29.42
77737;BME280;66903;59.926;30.404;2023-04-03T16:30:50;102379.97;;;24.64;29.57
77737;BME280;66903;59.926;30.404;2023-04-03T16:35:51;102381.88;;;24.54;29.98
77737;BME280;66903;59.926;30.404;2023-04-03T16:40:52;102362.34;;;24.46;30.18
77737;BME280;66903;59.926;30.404;2023-04-03T16:45:57;102373.72;;;24.41;29.80
77737;BME280;66903;59.926;30.404;2023-04-03T16:50:58;102387.06;;;24.35;29.90
77737;BME280;66903;59.926;30.404;2023-04-03T16:55:58;102389.31;;;24.33;30.16
77737;BME280;66903;59.926;30.404;2023-04-03T17:01:17;102393.31;;;24.32;30.05
77737;BME280;66903;59.926;30.404;2023-04-03T17:06:20;102386.94;;;24.25;29.57
77737;BME280;66903;59.926;30.404;2023-04-03T17:11:21;102384.91;;;24.21;30.07
77737;BME280;66903;59.926;30.404;2023-04-03T17:16:23;102385.47;;;24.23;30.10
77737;BME280;66903;59.926;30.404;2023-04-03T17:21:24;102395.78;;;24.24;29.46
77737;BME280;66903;59.926;30.404;2023-04-03T17:26:25;102384.63;;;24.22;29.40
77737;BME280;66903;59.926;30.404;2023-04-03T17:31:26;102388.00;;;24.19;28.95
77737;BME280;66903;59.926;30.404;2023-04-03T17:36:28;102394.53;;;24.15;28.59
77737;BME280;66903;59.926;30.404;2023-04-03T17:41:29;102388.16;;;24.07;29.04
77737;BME280;66903;59.926;30.404;2023-04-03T17:46:31;102388.44;;;24.06;28.94
77737;BME280;66903;59.926;30.404;2023-04-03T17:51:31;102382.44;;;24.07;28.69
77737;BME280;66903;59.926;30.404;2023-04-03T17:56:35;102379.59;;;24.07;29.22
77737;BME280;66903;59.926;30.404;2023-04-03T18:01:35;102384.75;;;24.10;28.94
77737;BME280;66903;59.926;30.404;2023-04-03T18:06:42;102374.53;;;24.15;29.08
77737;BME280;66903;59.926;30.404;2023-04-03T18:11:45;102376.53;;;24.14;28.88
77737;BME280;66903;59.926;30.404;2023-04-03T18:16:46;102357.69;;;24.13;28.98
77737;BME280;66903;59.926;30.404;2023-04-03T18:21:47;102361.66;;;24.12;28.73
77737;BME280;66903;59.926;30.404;2023-04-03T18:26:52;102355.38;;;24.10;28.26
77737;BME280;66903;59.926;30.404;2023-04-03T18:31:55;102357.63;;;24.08;28.65
77737;BME280;66903;59.926;30.404;2023-04-03T18:36:56;102365.00;;;24.04;28.29
77737;BME280;66903;59.926;30.404;2023-04-03T18:41:59;102351.53;;;23.99;28.23
77737;BME280;66903;59.926;30.404;2023-04-03T18:47:02;102346.91;;;23.98;28.84
77737;BME280;66903;59.926;30.404;2023-04-03T18:52:03;102345.53;;;24.01;28.43
77737;BME280;66903;59.926;30.404;2023-04-03T18:57:04;102337.25;;;23.99;28.73
77737;BME280;66903;59.926;30.404;2023-04-03T19:02:06;102335.31;;;24.05;28.92
77737;BME280;66903;59.926;30.404;2023-04-03T19:07:08;102329.84;;;24.03;28.96
77737;BME280;66903;59.926;30.404;2023-04-03T19:12:09;102335.31;;;24.05;29.35
77737;BME280;66903;59.926;30.404;2023-04-03T19:17:10;102317.13;;;24.11;29.72
77737;BME280;66903;59.926;30.404;2023-04-03T19:22:10;102319.75;;;24.18;29.54
77737;BME280;66903;59.926;30.404;2023-04-03T19:27:11;102324.13;;;24.25;29.60
77737;BME280;66903;59.926;30.404;2023-04-03T19:32:11;102324.78;;;24.32;29.57
77737;BME280;66903;59.926;30.404;2023-04-03T19:37:12;102311.16;;;24.39;29.70
77737;BME280;66903;59.926;30.404;2023-04-03T19:42:14;102306.63;;;24.43;29.04
77737;BME280;66903;59.926;30.404;2023-04-03T19:47:15;102300.91;;;24.43;29.35
77737;BME280;66903;59.926;30.404;2023-04-03T19:52:16;102296.03;;;24.44;29.99
77737;BME280;66903;59.926;30.404;2023-04-03T19:57:17;102305.56;;;24.54;29.60
77737;BME280;66903;59.926;30.404;2023-04-03T20:02:18;102305.97;;;24.63;29.97
77737;BME280;66903;59.926;30.404;2023-04-03T20:07:20;102300.91;;;24.70;29.66
77737;BME280;66903;59.926;30.404;2023-04-03T20:12:20;102292.81;;;24.93;29.51
77737;BME280;66903;59.926;30.404;2023-04-03T20:17:21;102291.25;;;25.17;29.10
77737;BME280;66903;59.926;30.404;2023-04-03T20:22:22;102292.81;;;25.35;28.92
77737;BME280;66903;59.926;30.404;2023-04-03T20:27:23;102292.06;;;25.50;28.68
77737;BME280;66903;59.926;30.404;2023-04-03T20:32:24;102294.44;;;25.58;28.62
77737;BME280;66903;59.926;30.404;2023-04-03T20:37:24;102284.69;;;25.64;28.01
77737;BME280;66903;59.926;30.404;2023-04-03T20:42:25;102268.97;;;25.61;28.00
77737;BME280;66903;59.926;30.404;2023-04-03T20:47:26;102261.50;;;25.60;28.25
77737;BME280;66903;59.926;30.404;2023-04-03T20:52:27;102271.53;;;25.58;28.21
77737;BME280;66903;59.926;30.404;2023-04-03T20:57:27;102262.34;;;25.56;28.31
77737;BME280;66903;59.926;30.404;2023-04-03T21:02:30;102272.06;;;25.55;28.96
77737;BME280;66903;59.926;30.404;2023-04-03T21:19:25;102258.69;;;25.75;30.91
77737;BME280;66903;59.926;30.404;2023-04-03T21:24:19;102264.19;;;25.82;30.92
77737;BME280;66903;59.926;30.404;2023-04-03T21:29:20;102256.47;;;25.87;31.00
77737;BME280;66903;59.926;30.404;2023-04-03T21:34:21;102261.34;;;25.92;31.18
77737;BME280;66903;59.926;30.404;2023-04-03T21:39:24;102255.31;;;25.93;30.47
77737;BME280;66903;59.926;30.404;2023-04-03T21:44:26;102260.75;;;25.90;30.23
77737;BME280;66903;59.926;30.404;2023-04-03T21:49:30;102256.19;;;25.89;30.18
77737;BME280;66903;59.926;30.404;2023-04-03T21:54:31;102247.00;;;25.87;29.96
77737;BME280;66903;59.926;30.404;2023-04-03T21:59:33;102244.16;;;25.87;29.96
77737;BME280;66903;59.926;30.404;2023-04-03T22:04:33;102247.88;;;25.87;29.65
77737;BME280;66903;59.926;30.404;2023-04-03T22:09:58;102245.31;;;25.91;29.66
77737;BME280;66903;59.926;30.404;2023-04-03T22:15:17;102238.13;;;25.88;29.47
77737;BME280;66903;59.926;30.404;2023-04-03T22:20:17;102239.53;;;25.86;29.25
77737;BME280;66903;59.926;30.404;2023-04-03T22:25:39;102235.56;;;25.87;29.18
77737;BME280;66903;59.926;30.404;2023-04-03T22:31:02;102233.81;;;25.86;29.41
77737;BME280;66903;59.926;30.404;2023-04-03T22:36:04;102227.53;;;25.84;29.35
77737;BME280;66903;59.926;30.404;2023-04-03T22:41:06;102228.09;;;25.86;29.41
77737;BME280;66903;59.926;30.404;2023-04-03T22:46:08;102229.25;;;25.85;29.68
77737;BME280;66903;59.926;30.404;2023-04-03T22:51:08;102229.25;;;25.85;29.07
77737;BME280;66903;59.926;30.404;2023-04-03T22:56:09;102211.22;;;25.84;29.50
77737;BME280;66903;59.926;30.404;2023-04-03T23:01:13;102214.94;;;25.85;29.42
77737;BME280;66903;59.926;30.404;2023-04-03T23:06:14;102215.81;;;25.85;28.99
77737;BME280;66903;59.926;30.404;2023-04-03T23:11:14;102214.94;;;25.85;29.25
77737;BME280;66903;59.926;30.404;2023-04-03T23:16:15;102198.88;;;25.79;29.35
77737;BME280;66903;59.926;30.404;2023-04-03T23:21:16;102213.22;;;25.84;29.00
77737;BME280;66903;59.926;30.404;2023-04-03T23:26:16;102211.22;;;25.84;29.01
77737;BME280;66903;59.926;30.404;2023-04-03T23:31:17;102193.75;;;25.86;28.99
77737;BME280;66903;59.926;30.404;2023-04-03T23:36:17;102192.31;;;25.83;29.18
77737;BME280;66903;59.926;30.404;2023-04-03T23:41:20;102196.59;;;25.86;29.25
77737;BME280;66903;59.926;30.404;2023-04-03T23:46:20;102177.72;;;25.85;28.94
77737;BME280;66903;59.926;30.404;2023-04-03T23:51:21;102191.16;;;25.84;29.30
77737;BME280;66903;59.926;30.404;2023-04-03T23:56:21;102189.75;;;25.82;29.11
